Skaelskor, Denmark
Current Conditions -  °F | °C
As of 7:20 PM on Saturday 20 Dec 2014 (Local Time) from EKRK Reporting Station
Clear Clear  
Wind Chill: 29°   Ceiling: Unl
Heat Index: 39°   Visibility: 6mi
Dew Point: 32°   Wind: 21mph
Humidity: 75%   Direction: 300°WNW
Pressure: 29.56"   Gusts: 35mph
Location:  55.25°N, 11.29°E
Report Text: EKRK 201820Z AUTO 30018G30KT 9999NDV NCD 04/00 Q1001
Loading
Personal Weather Stations






























Interactive Weather Map New forecast layout! Learn more

10-Day Weather Forecast

Advertisements
Track Severe Weather on mobile